logo
Search for airport 
image banner adimage banner adimage banner ad
image banner ad

SHHN - Hospital Naval Almirante Nef

Located in Vina Del Mar, Chile

ICAO - SHHN, IATA -

Data provided by Airmate  

General information

Coordinates: S33°59'48" W71°32'9"
Elevation is 200 feet MSL.
 
View others Airports in Valparaíso

Operational data

Special qualification required
Current time UTC:
Current local time:
Weather at : SCSN - Santo Domingo ( 38 km )
METAR: SCSN 171300Z VRB02KT 4000 BR NSC 05/05 Q1018
View NOTAMs / SUP AIP / TFR affecting this airport [VIEW]
Communications frequencies: [VIEW]

Runways:

Airport contact information

Address: Vina Del Mar Chile

Satellite view of SHHN